sensor_id;sensor_type;location;lat;lon;timestamp;pressure;altitude;pressure_sealevel;temperature;humidity
71194;BME280;58903;47.210;8.618;2023-01-26T00:00:10;94468.69;;;25.43;38.22
71194;BME280;58903;47.210;8.618;2023-01-26T00:02:36;94463.66;;;25.41;37.54
71194;BME280;58903;47.210;8.618;2023-01-26T00:05:02;94461.94;;;25.44;38.13
71194;BME280;58903;47.210;8.618;2023-01-26T00:07:28;94465.19;;;25.42;38.46
71194;BME280;58903;47.210;8.618;2023-01-26T00:09:54;94462.41;;;25.42;38.24
71194;BME280;58903;47.210;8.618;2023-01-26T00:12:20;94452.41;;;25.39;37.65
71194;BME280;58903;47.210;8.618;2023-01-26T00:14:48;94447.66;;;25.40;37.55
71194;BME280;58903;47.210;8.618;2023-01-26T00:17:20;94451.41;;;25.42;38.42
71194;BME280;58903;47.210;8.618;2023-01-26T00:19:54;94442.41;;;25.42;37.55
71194;BME280;58903;47.210;8.618;2023-01-26T00:22:21;94435.88;;;25.39;37.97
71194;BME280;58903;47.210;8.618;2023-01-26T00:24:47;94437.38;;;25.40;38.18
71194;BME280;58903;47.210;8.618;2023-01-26T00:27:18;94425.63;;;25.40;38.13
71194;BME280;58903;47.210;8.618;2023-01-26T00:30:00;94430.38;;;25.39;38.28
71194;BME280;58903;47.210;8.618;2023-01-26T00:32:27;94429.13;;;25.40;37.54
71194;BME280;58903;47.210;8.618;2023-01-26T00:34:57;94421.59;;;25.41;37.48
71194;BME280;58903;47.210;8.618;2023-01-26T00:37:33;94423.38;;;25.38;38.36
71194;BME280;58903;47.210;8.618;2023-01-26T00:40:01;94422.13;;;25.39;37.94
71194;BME280;58903;47.210;8.618;2023-01-26T00:42:54;94427.13;;;25.41;37.44
71194;BME280;58903;47.210;8.618;2023-01-26T00:45:20;94426.88;;;25.39;37.88
71194;BME280;58903;47.210;8.618;2023-01-26T00:47:46;94424.88;;;25.39;38.09
71194;BME280;58903;47.210;8.618;2023-01-26T00:50:27;94428.16;;;25.38;38.43
71194;BME280;58903;47.210;8.618;2023-01-26T00:52:54;94426.88;;;25.39;37.58
71194;BME280;58903;47.210;8.618;2023-01-26T00:55:20;94431.38;;;25.36;38.07
71194;BME280;58903;47.210;8.618;2023-01-26T00:57:49;94425.41;;;25.38;37.53
71194;BME280;58903;47.210;8.618;2023-01-26T01:00:18;94422.63;;;25.38;37.89
71194;BME280;58903;47.210;8.618;2023-01-26T01:02:48;94423.13;;;25.36;38.39
71194;BME280;58903;47.210;8.618;2023-01-26T01:05:17;94425.88;;;25.36;37.53
71194;BME280;58903;47.210;8.618;2023-01-26T01:07:43;94428.16;;;25.38;38.41
71194;BME280;58903;47.210;8.618;2023-01-26T01:10:09;94428.16;;;25.38;38.37
71194;BME280;58903;47.210;8.618;2023-01-26T01:12:35;94423.88;;;25.37;37.47
71194;BME280;58903;47.210;8.618;2023-01-26T01:15:02;94430.91;;;25.38;37.65
71194;BME280;58903;47.210;8.618;2023-01-26T01:17:30;94431.63;;;25.38;38.25
71194;BME280;58903;47.210;8.618;2023-01-26T01:20:08;94424.88;;;25.39;37.62
71194;BME280;58903;47.210;8.618;2023-01-26T01:22:37;94430.38;;;25.39;37.13
71194;BME280;58903;47.210;8.618;2023-01-26T01:25:14;94428.88;;;25.38;37.95
71194;BME280;58903;47.210;8.618;2023-01-26T01:27:59;94422.63;;;25.38;38.09
71194;BME280;58903;47.210;8.618;2023-01-26T01:30:32;94427.63;;;25.39;38.24
71194;BME280;58903;47.210;8.618;2023-01-26T01:32:58;94424.13;;;25.39;38.20
71194;BME280;58903;47.210;8.618;2023-01-26T01:35:24;94420.63;;;25.38;37.98
71194;BME280;58903;47.210;8.618;2023-01-26T01:37:54;94414.63;;;25.40;38.29
71194;BME280;58903;47.210;8.618;2023-01-26T01:40:20;94420.84;;;25.40;37.38
71194;BME280;58903;47.210;8.618;2023-01-26T01:42:57;94415.84;;;25.39;37.73
71194;BME280;58903;47.210;8.618;2023-01-26T01:45:38;94416.63;;;25.39;37.97
71194;BME280;58903;47.210;8.618;2023-01-26T01:48:16;94417.13;;;25.38;37.92
71194;BME280;58903;47.210;8.618;2023-01-26T01:51:05;94413.09;;;25.39;37.37
71194;BME280;58903;47.210;8.618;2023-01-26T01:53:37;94412.34;;;25.38;37.30
71194;BME280;58903;47.210;8.618;2023-01-26T01:56:12;94407.38;;;25.37;37.22
71194;BME280;58903;47.210;8.618;2023-01-26T01:59:06;94410.88;;;25.37;37.61
71194;BME280;58903;47.210;8.618;2023-01-26T02:01:36;94407.38;;;25.37;37.80
71194;BME280;58903;47.210;8.618;2023-01-26T02:04:20;94403.38;;;25.38;37.79
71194;BME280;58903;47.210;8.618;2023-01-26T02:06:59;94403.38;;;25.38;38.19
71194;BME280;58903;47.210;8.618;2023-01-26T02:09:47;94396.88;;;25.35;38.14
71194;BME280;58903;47.210;8.618;2023-01-26T02:12:33;94400.63;;;25.38;37.09
71194;BME280;58903;47.210;8.618;2023-01-26T02:15:02;94403.09;;;25.36;37.55
71194;BME280;58903;47.210;8.618;2023-01-26T02:18:01;94399.84;;;25.37;37.29
71194;BME280;58903;47.210;8.618;2023-01-26T02:21:06;94397.09;;;25.37;37.49
71194;BME280;58903;47.210;8.618;2023-01-26T02:24:03;94400.63;;;25.38;38.09
71194;BME280;58903;47.210;8.618;2023-01-26T02:27:04;94390.31;;;25.38;37.95
71194;BME280;58903;47.210;8.618;2023-01-26T02:30:05;94379.31;;;25.38;37.58
71194;BME280;58903;47.210;8.618;2023-01-26T02:32:56;94379.31;;;25.38;37.44
71194;BME280;58903;47.210;8.618;2023-01-26T02:35:23;94373.81;;;25.38;37.76
71194;BME280;58903;47.210;8.618;2023-01-26T02:37:52;94372.31;;;25.37;37.65
71194;BME280;58903;47.210;8.618;2023-01-26T02:40:39;94373.06;;;25.38;37.94
71194;BME280;58903;47.210;8.618;2023-01-26T02:43:12;94372.31;;;25.37;37.45
71194;BME280;58903;47.210;8.618;2023-01-26T02:45:39;94365.84;;;25.35;37.09
71194;BME280;58903;47.210;8.618;2023-01-26T02:48:06;94367.56;;;25.38;37.23
71194;BME280;58903;47.210;8.618;2023-01-26T02:50:33;94358.81;;;25.34;37.83
71194;BME280;58903;47.210;8.618;2023-01-26T02:53:01;94362.06;;;25.38;37.48
71194;BME280;58903;47.210;8.618;2023-01-26T02:55:36;94353.81;;;25.38;37.46
71194;BME280;58903;47.210;8.618;2023-01-26T02:58:35;94355.06;;;25.37;37.21
71194;BME280;58903;47.210;8.618;2023-01-26T03:01:10;94350.56;;;25.34;37.39
71194;BME280;58903;47.210;8.618;2023-01-26T03:03:41;94353.31;;;25.34;37.25
71194;BME280;58903;47.210;8.618;2023-01-26T03:06:08;94341.81;;;25.35;37.33
71194;BME280;58903;47.210;8.618;2023-01-26T03:08:36;94342.53;;;25.36;37.11
71194;BME280;58903;47.210;8.618;2023-01-26T03:11:03;94327.81;;;25.33;37.19
71194;BME280;58903;47.210;8.618;2023-01-26T03:13:32;94328.03;;;25.35;37.74
71194;BME280;58903;47.210;8.618;2023-01-26T03:16:01;94336.28;;;25.35;37.39
71194;BME280;58903;47.210;8.618;2023-01-26T03:18:33;94332.03;;;25.34;37.23
71194;BME280;58903;47.210;8.618;2023-01-26T03:21:19;94324.00;;;25.36;37.01
71194;BME280;58903;47.210;8.618;2023-01-26T03:24:05;94330.28;;;25.37;37.18
71194;BME280;58903;47.210;8.618;2023-01-26T03:30:04;94333.03;;;25.37;37.24
71194;BME280;58903;47.210;8.618;2023-01-26T03:32:30;94339.78;;;25.36;37.55
71194;BME280;58903;47.210;8.618;2023-01-26T03:35:05;94335.03;;;25.36;37.47
71194;BME280;58903;47.210;8.618;2023-01-26T03:37:36;94326.28;;;25.38;38.03
71194;BME280;58903;47.210;8.618;2023-01-26T03:40:13;94325.28;;;25.35;37.55
71194;BME280;58903;47.210;8.618;2023-01-26T03:43:10;94333.03;;;25.37;37.08
71194;BME280;58903;47.210;8.618;2023-01-26T03:45:54;94324.75;;;25.37;37.17
71194;BME280;58903;47.210;8.618;2023-01-26T03:48:39;94328.03;;;25.35;37.46
71194;BME280;58903;47.210;8.618;2023-01-26T03:51:23;94328.28;;;25.37;37.72
71194;BME280;58903;47.210;8.618;2023-01-26T03:54:08;94322.78;;;25.37;37.24
71194;BME280;58903;47.210;8.618;2023-01-26T03:56:52;94315.75;;;25.36;37.27
71194;BME280;58903;47.210;8.618;2023-01-26T03:59:18;94315.00;;;25.36;38.15
71194;BME280;58903;47.210;8.618;2023-01-26T04:02:05;94317.75;;;25.36;38.04
71194;BME280;58903;47.210;8.618;2023-01-26T04:04:50;94310.25;;;25.36;37.63
71194;BME280;58903;47.210;8.618;2023-01-26T04:07:41;94309.50;;;25.36;37.91
71194;BME280;58903;47.210;8.618;2023-01-26T04:10:26;94301.75;;;25.34;38.23
71194;BME280;58903;47.210;8.618;2023-01-26T04:12:52;94311.75;;;25.37;37.63
71194;BME280;58903;47.210;8.618;2023-01-26T04:15:37;94306.75;;;25.36;37.00
71194;BME280;58903;47.210;8.618;2023-01-26T04:18:22;94296.25;;;25.34;36.89
71194;BME280;58903;47.210;8.618;2023-01-26T04:21:07;94296.47;;;25.36;37.63
71194;BME280;58903;47.210;8.618;2023-01-26T04:23:57;94292.97;;;25.36;37.95
71194;BME280;58903;47.210;8.618;2023-01-26T04:26:44;94289.50;;;25.35;38.05
71194;BME280;58903;47.210;8.618;2023-01-26T04:29:16;94292.97;;;25.36;37.80
71194;BME280;58903;47.210;8.618;2023-01-26T04:31:51;94292.25;;;25.35;37.58
71194;BME280;58903;47.210;8.618;2023-01-26T04:34:17;94291.50;;;25.35;37.47
71194;BME280;58903;47.210;8.618;2023-01-26T04:36:43;94283.22;;;25.35;37.18
71194;BME280;58903;47.210;8.618;2023-01-26T04:39:09;94279.22;;;25.36;37.27
71194;BME280;58903;47.210;8.618;2023-01-26T04:41:38;94281.25;;;25.35;37.04
71194;BME280;58903;47.210;8.618;2023-01-26T04:44:22;94278.75;;;25.32;37.16
71194;BME280;58903;47.210;8.618;2023-01-26T04:46:53;94276.00;;;25.32;37.77
71194;BME280;58903;47.210;8.618;2023-01-26T04:49:19;94277.72;;;25.35;37.95
71194;BME280;58903;47.210;8.618;2023-01-26T04:51:45;94273.47;;;25.34;37.26
71194;BME280;58903;47.210;8.618;2023-01-26T04:54:20;94267.97;;;25.34;37.33
71194;BME280;58903;47.210;8.618;2023-01-26T04:56:48;94266.47;;;25.33;37.36
71194;BME280;58903;47.210;8.618;2023-01-26T04:59:18;94272.97;;;25.35;37.28
71194;BME280;58903;47.210;8.618;2023-01-26T05:01:44;94267.22;;;25.33;37.36
71194;BME280;58903;47.210;8.618;2023-01-26T05:04:13;94270.00;;;25.33;37.27
71194;BME280;58903;47.210;8.618;2023-01-26T05:06:47;94279.97;;;25.36;37.43
71194;BME280;58903;47.210;8.618;2023-01-26T05:09:13;94273.69;;;25.36;37.89
71194;BME280;58903;47.210;8.618;2023-01-26T05:11:46;94277.22;;;25.36;37.39
71194;BME280;58903;47.210;8.618;2023-01-26T05:14:44;94268.19;;;25.36;37.91
71194;BME280;58903;47.210;8.618;2023-01-26T05:17:12;94266.72;;;25.35;37.74
71194;BME280;58903;47.210;8.618;2023-01-26T05:20:04;94263.97;;;25.35;37.86
71194;BME280;58903;47.210;8.618;2023-01-26T05:22:51;94260.97;;;25.33;37.57
71194;BME280;58903;47.210;8.618;2023-01-26T05:25:16;94262.47;;;25.34;37.48
71194;BME280;58903;47.210;8.618;2023-01-26T05:27:43;94258.47;;;25.35;37.83
71194;BME280;58903;47.210;8.618;2023-01-26T05:30:25;94265.44;;;25.36;37.90
71194;BME280;58903;47.210;8.618;2023-01-26T05:33:10;94259.22;;;25.35;37.02
71194;BME280;58903;47.210;8.618;2023-01-26T05:35:39;94259.94;;;25.36;36.95
71194;BME280;58903;47.210;8.618;2023-01-26T05:38:07;94255.19;;;25.36;37.08
71194;BME280;58903;47.210;8.618;2023-01-26T05:40:33;94254.44;;;25.36;37.63
71194;BME280;58903;47.210;8.618;2023-01-26T05:42:59;94252.44;;;25.36;37.47
71194;BME280;58903;47.210;8.618;2023-01-26T05:45:25;94246.16;;;25.36;36.98
71194;BME280;58903;47.210;8.618;2023-01-26T05:47:53;94243.41;;;25.36;37.47
71194;BME280;58903;47.210;8.618;2023-01-26T05:50:19;94252.94;;;25.35;37.76
71194;BME280;58903;47.210;8.618;2023-01-26T05:52:45;94252.44;;;25.36;37.69
71194;BME280;58903;47.210;8.618;2023-01-26T05:55:28;94250.19;;;25.35;37.63
71194;BME280;58903;47.210;8.618;2023-01-26T05:58:05;94254.44;;;25.36;37.14
71194;BME280;58903;47.210;8.618;2023-01-26T06:03:48;94258.91;;;25.39;37.12
71194;BME280;58903;47.210;8.618;2023-01-26T06:06:23;94258.91;;;25.39;37.71
71194;BME280;58903;47.210;8.618;2023-01-26T06:08:49;94245.16;;;25.39;38.00
71194;BME280;58903;47.210;8.618;2023-01-26T06:11:15;94258.91;;;25.39;37.86
71194;BME280;58903;47.210;8.618;2023-01-26T06:13:43;94255.41;;;25.38;37.61
71194;BME280;58903;47.210;8.618;2023-01-26T06:16:21;94259.91;;;25.41;38.38
71194;BME280;58903;47.210;8.618;2023-01-26T06:19:19;94261.16;;;25.46;38.21
71194;BME280;58903;47.210;8.618;2023-01-26T06:21:47;94265.13;;;25.51;37.91
71194;BME280;58903;47.210;8.618;2023-01-26T06:24:13;94264.84;;;25.54;37.21
71194;BME280;58903;47.210;8.618;2023-01-26T06:26:39;94261.84;;;25.52;37.80
71194;BME280;58903;47.210;8.618;2023-01-26T06:29:14;94260.88;;;25.50;38.59
71194;BME280;58903;47.210;8.618;2023-01-26T06:31:52;94265.63;;;25.49;37.76
71194;BME280;58903;47.210;8.618;2023-01-26T06:34:18;94269.13;;;25.50;37.73
71194;BME280;58903;47.210;8.618;2023-01-26T06:37:20;94266.91;;;25.48;38.34
71194;BME280;58903;47.210;8.618;2023-01-26T06:40:05;94263.16;;;25.46;37.94
71194;BME280;58903;47.210;8.618;2023-01-26T06:43:01;94260.91;;;25.44;38.29
71194;BME280;58903;47.210;8.618;2023-01-26T06:45:58;94260.63;;;25.48;37.91
71194;BME280;58903;47.210;8.618;2023-01-26T06:48:26;94266.91;;;25.42;37.91
71194;BME280;58903;47.210;8.618;2023-01-26T06:50:57;94265.69;;;25.43;38.40
71194;BME280;58903;47.210;8.618;2023-01-26T06:53:32;94266.19;;;25.42;38.51
71194;BME280;58903;47.210;8.618;2023-01-26T06:56:21;94255.66;;;25.40;37.85
71194;BME280;58903;47.210;8.618;2023-01-26T06:58:56;94266.66;;;25.40;38.00
71194;BME280;58903;47.210;8.618;2023-01-26T07:04:46;94252.94;;;25.35;38.07
71194;BME280;58903;47.210;8.618;2023-01-26T07:07:23;94257.44;;;25.38;38.44
71194;BME280;58903;47.210;8.618;2023-01-26T07:10:23;94264.44;;;25.39;38.69
71194;BME280;58903;47.210;8.618;2023-01-26T07:12:50;94257.94;;;25.36;38.83
71194;BME280;58903;47.210;8.618;2023-01-26T07:15:16;94258.69;;;25.37;38.63
71194;BME280;58903;47.210;8.618;2023-01-26T07:17:45;94259.69;;;25.39;38.47
71194;BME280;58903;47.210;8.618;2023-01-26T07:20:12;94263.69;;;25.38;38.42
71194;BME280;58903;47.210;8.618;2023-01-26T07:22:38;94259.69;;;25.39;38.80
71194;BME280;58903;47.210;8.618;2023-01-26T07:25:04;94254.69;;;25.38;37.93
71194;BME280;58903;47.210;8.618;2023-01-26T07:27:30;94256.69;;;25.37;38.47
71194;BME280;58903;47.210;8.618;2023-01-26T07:29:56;94256.91;;;25.39;38.44
71194;BME280;58903;47.210;8.618;2023-01-26T07:32:38;94258.16;;;25.38;38.03
71194;BME280;58903;47.210;8.618;2023-01-26T07:35:06;94254.16;;;25.39;38.31
71194;BME280;58903;47.210;8.618;2023-01-26T07:37:52;94260.44;;;25.40;38.50
71194;BME280;58903;47.210;8.618;2023-01-26T07:40:30;94256.41;;;25.41;38.74
71194;BME280;58903;47.210;8.618;2023-01-26T07:42:57;94251.41;;;25.39;38.39
71194;BME280;58903;47.210;8.618;2023-01-26T07:45:27;94261.16;;;25.40;37.95
71194;BME280;58903;47.210;8.618;2023-01-26T07:47:53;94254.91;;;25.40;38.67
71194;BME280;58903;47.210;8.618;2023-01-26T07:50:19;94252.91;;;25.40;38.56
71194;BME280;58903;47.210;8.618;2023-01-26T07:52:49;94256.91;;;25.39;37.83
71194;BME280;58903;47.210;8.618;2023-01-26T07:55:18;94245.16;;;25.39;38.23
71194;BME280;58903;47.210;8.618;2023-01-26T07:57:48;94249.41;;;25.40;38.51
71194;BME280;58903;47.210;8.618;2023-01-26T08:00:20;94253.66;;;25.41;38.63
71194;BME280;58903;47.210;8.618;2023-01-26T08:02:53;94247.91;;;25.39;38.59
71194;BME280;58903;47.210;8.618;2023-01-26T08:05:21;94251.66;;;25.41;37.93
71194;BME280;58903;47.210;8.618;2023-01-26T08:07:49;94244.63;;;25.40;38.00
71194;BME280;58903;47.210;8.618;2023-01-26T08:10:15;94250.91;;;25.41;38.51
71194;BME280;58903;47.210;8.618;2023-01-26T08:12:44;94251.66;;;25.41;38.78
71194;BME280;58903;47.210;8.618;2023-01-26T08:15:10;94245.38;;;25.41;38.31
71194;BME280;58903;47.210;8.618;2023-01-26T08:17:39;94243.91;;;25.40;38.69
71194;BME280;58903;47.210;8.618;2023-01-26T08:20:08;94251.66;;;25.41;38.14
71194;BME280;58903;47.210;8.618;2023-01-26T08:22:41;94245.38;;;25.41;38.80
71194;BME280;58903;47.210;8.618;2023-01-26T08:25:07;94243.16;;;25.39;38.76
71194;BME280;58903;47.210;8.618;2023-01-26T08:27:39;94256.41;;;25.41;38.74
71194;BME280;58903;47.210;8.618;2023-01-26T08:30:08;94250.91;;;25.41;38.58
71194;BME280;58903;47.210;8.618;2023-01-26T08:32:51;94253.66;;;25.41;38.67
71194;BME280;58903;47.210;8.618;2023-01-26T08:35:36;94250.13;;;25.40;38.82
71194;BME280;58903;47.210;8.618;2023-01-26T08:38:12;94249.41;;;25.40;38.57
71194;BME280;58903;47.210;8.618;2023-01-26T08:40:41;94253.91;;;25.43;37.65
71194;BME280;58903;47.210;8.618;2023-01-26T08:43:07;94249.69;;;25.42;38.62
71194;BME280;58903;47.210;8.618;2023-01-26T08:45:36;94250.72;;;25.33;35.03
71194;BME280;58903;47.210;8.618;2023-01-26T08:48:02;94243.88;;;25.10;27.02
71194;BME280;58903;47.210;8.618;2023-01-26T08:50:30;94263.06;;;24.81;25.89
71194;BME280;58903;47.210;8.618;2023-01-26T08:52:56;94252.84;;;24.64;26.43
71194;BME280;58903;47.210;8.618;2023-01-26T08:55:47;94256.13;;;24.63;26.75
71194;BME280;58903;47.210;8.618;2023-01-26T08:58:15;94248.88;;;24.65;25.85
71194;BME280;58903;47.210;8.618;2023-01-26T09:00:41;94247.59;;;24.72;24.71
71194;BME280;58903;47.210;8.618;2023-01-26T09:03:07;94245.06;;;24.80;25.39
71194;BME280;58903;47.210;8.618;2023-01-26T09:05:35;94243.03;;;24.86;25.29
71194;BME280;58903;47.210;8.618;2023-01-26T09:08:14;94246.50;;;24.92;25.01
71194;BME280;58903;47.210;8.618;2023-01-26T09:10:42;94245.22;;;24.93;24.44
71194;BME280;58903;47.210;8.618;2023-01-26T09:13:20;94240.00;;;24.89;25.24
71194;BME280;58903;47.210;8.618;2023-01-26T09:15:55;94239.25;;;24.89;25.17
71194;BME280;58903;47.210;8.618;2023-01-26T09:18:21;94244.75;;;24.89;25.69
71194;BME280;58903;47.210;8.618;2023-01-26T09:20:50;94247.50;;;24.89;26.10
71194;BME280;58903;47.210;8.618;2023-01-26T09:23:18;94247.75;;;24.91;26.50
71194;BME280;58903;47.210;8.618;2023-01-26T09:25:45;94242.25;;;24.91;27.06
71194;BME280;58903;47.210;8.618;2023-01-26T09:28:11;94252.25;;;24.94;26.63
71194;BME280;58903;47.210;8.618;2023-01-26T09:30:49;94252.47;;;24.96;26.90
71194;BME280;58903;47.210;8.618;2023-01-26T09:33:24;94251.22;;;24.97;27.15
71194;BME280;58903;47.210;8.618;2023-01-26T09:36:01;94251.47;;;24.99;27.46
71194;BME280;58903;47.210;8.618;2023-01-26T09:38:28;94251.47;;;24.99;27.32
71194;BME280;58903;47.210;8.618;2023-01-26T09:41:20;94248.94;;;25.01;28.11
71194;BME280;58903;47.210;8.618;2023-01-26T09:52:20;94254.63;;;25.08;28.83
71194;BME280;58903;47.210;8.618;2023-01-26T09:55:03;94261.66;;;25.09;29.09
71194;BME280;58903;47.210;8.618;2023-01-26T09:57:45;94259.66;;;25.10;29.61
71194;BME280;58903;47.210;8.618;2023-01-26T10:07:20;94258.59;;;25.13;29.77
71194;BME280;58903;47.210;8.618;2023-01-26T10:09:50;94245.09;;;25.15;30.04
71194;BME280;58903;47.210;8.618;2023-01-26T10:12:34;94243.78;;;25.21;29.64
71194;BME280;58903;47.210;8.618;2023-01-26T10:15:28;94248.06;;;25.17;30.20
71194;BME280;58903;47.210;8.618;2023-01-26T10:17:53;94244.34;;;25.14;30.15
71194;BME280;58903;47.210;8.618;2023-01-26T10:20:28;94236.59;;;25.13;30.06
71194;BME280;58903;47.210;8.618;2023-01-26T10:23:04;94241.09;;;25.16;29.89
71194;BME280;58903;47.210;8.618;2023-01-26T10:25:39;94246.06;;;25.17;30.70
71194;BME280;58903;47.210;8.618;2023-01-26T10:28:18;94249.56;;;25.18;30.23
71194;BME280;58903;47.210;8.618;2023-01-26T10:30:47;94241.09;;;25.16;30.44
71194;BME280;58903;47.210;8.618;2023-01-26T10:33:27;94240.28;;;25.21;31.07
71194;BME280;58903;47.210;8.618;2023-01-26T10:35:55;94229.78;;;25.19;30.98
71194;BME280;58903;47.210;8.618;2023-01-26T10:41:00;94233.28;;;25.20;31.56
71194;BME280;58903;47.210;8.618;2023-01-26T10:43:28;94233.53;;;25.22;31.36
71194;BME280;58903;47.210;8.618;2023-01-26T10:45:58;94231.53;;;25.22;31.50
71194;BME280;58903;47.210;8.618;2023-01-26T10:48:26;94216.78;;;25.20;31.63
71194;BME280;58903;47.210;8.618;2023-01-26T10:50:53;94231.53;;;25.22;31.17
71194;BME280;58903;47.210;8.618;2023-01-26T10:53:27;94231.28;;;25.20;31.01
71194;BME280;58903;47.210;8.618;2023-01-26T10:56:21;94227.28;;;25.21;31.92
71194;BME280;58903;47.210;8.618;2023-01-26T10:59:05;94224.00;;;25.23;31.97
71194;BME280;58903;47.210;8.618;2023-01-26T11:01:52;94222.00;;;25.23;31.91
71194;BME280;58903;47.210;8.618;2023-01-26T11:04:34;94232.50;;;25.25;32.10
71194;BME280;58903;47.210;8.618;2023-01-26T11:07:39;94220.00;;;25.24;31.69
71194;BME280;58903;47.210;8.618;2023-01-26T11:13:17;94219.25;;;25.23;31.89
71194;BME280;58903;47.210;8.618;2023-01-26T11:18:55;94226.72;;;25.28;32.08
71194;BME280;58903;47.210;8.618;2023-01-26T11:21:52;94215.72;;;25.28;32.88
71194;BME280;58903;47.210;8.618;2023-01-26T11:27:25;94212.97;;;25.28;32.50
71194;BME280;58903;47.210;8.618;2023-01-26T11:33:04;94216.69;;;25.31;32.86
71194;BME280;58903;47.210;8.618;2023-01-26T11:38:49;94208.44;;;25.31;33.33
71194;BME280;58903;47.210;8.618;2023-01-26T11:41:29;94210.44;;;25.30;33.01
71194;BME280;58903;47.210;8.618;2023-01-26T11:50:22;94202.38;;;25.38;33.24
71194;BME280;58903;47.210;8.618;2023-01-26T12:01:10;94195.13;;;25.35;33.21
71194;BME280;58903;47.210;8.618;2023-01-26T12:03:46;94190.88;;;25.34;33.86
71194;BME280;58903;47.210;8.618;2023-01-26T12:06:36;94195.59;;;25.39;33.52
71194;BME280;58903;47.210;8.618;2023-01-26T12:14:41;94186.34;;;25.42;33.23
71194;BME280;58903;47.210;8.618;2023-01-26T12:26:04;94179.84;;;25.39;33.19
71194;BME280;58903;47.210;8.618;2023-01-26T12:45:17;94154.97;;;25.51;34.32
71194;BME280;58903;47.210;8.618;2023-01-26T12:47:55;94155.94;;;25.53;33.56
71194;BME280;58903;47.210;8.618;2023-01-26T12:53:02;94155.13;;;25.58;33.89
71194;BME280;58903;47.210;8.618;2023-01-26T12:58:39;94149.06;;;25.65;34.08
71194;BME280;58903;47.210;8.618;2023-01-26T13:01:42;94152.03;;;25.67;34.47
71194;BME280;58903;47.210;8.618;2023-01-26T13:04:19;94152.25;;;25.69;34.13
71194;BME280;58903;47.210;8.618;2023-01-26T13:07:25;94152.50;;;25.71;33.26
71194;BME280;58903;47.210;8.618;2023-01-26T13:19:34;94152.56;;;25.66;34.13
71194;BME280;58903;47.210;8.618;2023-01-26T13:25:11;94147.09;;;25.60;34.29
71194;BME280;58903;47.210;8.618;2023-01-26T13:33:13;94134.16;;;25.55;34.52
71194;BME280;58903;47.210;8.618;2023-01-26T13:35:44;94138.16;;;25.54;33.91
71194;BME280;58903;47.210;8.618;2023-01-26T13:40:48;94146.19;;;25.52;34.36
71194;BME280;58903;47.210;8.618;2023-01-26T13:43:49;94152.97;;;25.51;35.07
71194;BME280;58903;47.210;8.618;2023-01-26T13:51:33;94139.47;;;25.48;34.66
71194;BME280;58903;47.210;8.618;2023-01-26T13:54:11;94144.97;;;25.48;34.46
71194;BME280;58903;47.210;8.618;2023-01-26T13:57:18;94133.22;;;25.47;35.07
71194;BME280;58903;47.210;8.618;2023-01-26T14:02:55;94138.25;;;25.43;34.36
71194;BME280;58903;47.210;8.618;2023-01-26T14:05:23;94128.75;;;25.44;34.97
71194;BME280;58903;47.210;8.618;2023-01-26T14:07:52;94132.25;;;25.45;35.15
71194;BME280;58903;47.210;8.618;2023-01-26T14:10:19;94131.50;;;25.44;34.80
71194;BME280;58903;47.210;8.618;2023-01-26T14:12:52;94128.75;;;25.44;34.40
71194;BME280;58903;47.210;8.618;2023-01-26T14:15:28;94126.00;;;25.44;35.03
71194;BME280;58903;47.210;8.618;2023-01-26T14:18:03;94131.50;;;25.44;35.35
71194;BME280;58903;47.210;8.618;2023-01-26T14:20:42;94133.50;;;25.43;34.84
71194;BME280;58903;47.210;8.618;2023-01-26T14:23:43;94127.47;;;25.45;34.59
71194;BME280;58903;47.210;8.618;2023-01-26T14:26:35;94125.25;;;25.43;34.43
71194;BME280;58903;47.210;8.618;2023-01-26T14:29:23;94125.78;;;25.42;35.31
71194;BME280;58903;47.210;8.618;2023-01-26T14:31:57;94122.25;;;25.41;34.84
71194;BME280;58903;47.210;8.618;2023-01-26T14:34:33;94125.28;;;25.38;35.43
71194;BME280;58903;47.210;8.618;2023-01-26T14:37:18;94127.75;;;25.41;35.44
71194;BME280;58903;47.210;8.618;2023-01-26T14:40:38;94124.25;;;25.41;34.62
71194;BME280;58903;47.210;8.618;2023-01-26T14:43:08;94126.75;;;25.39;35.32
71194;BME280;58903;47.210;8.618;2023-01-26T14:45:54;94124.00;;;25.39;34.59
71194;BME280;58903;47.210;8.618;2023-01-26T14:48:30;94129.53;;;25.39;35.18
71194;BME280;58903;47.210;8.618;2023-01-26T14:50:57;94132.28;;;25.39;35.35
71194;BME280;58903;47.210;8.618;2023-01-26T14:53:29;94135.03;;;25.39;35.49
71194;BME280;58903;47.210;8.618;2023-01-26T14:56:19;94143.28;;;25.39;34.94
71194;BME280;58903;47.210;8.618;2023-01-26T14:58:56;94134.56;;;25.35;35.26
71194;BME280;58903;47.210;8.618;2023-01-26T15:01:29;94137.03;;;25.38;34.83
71194;BME280;58903;47.210;8.618;2023-01-26T15:04:14;94132.28;;;25.39;35.17
71194;BME280;58903;47.210;8.618;2023-01-26T15:10:41;94140.75;;;25.41;34.85
71194;BME280;58903;47.210;8.618;2023-01-26T15:15:42;94147.81;;;25.42;35.32
71194;BME280;58903;47.210;8.618;2023-01-26T15:24:46;94155.00;;;25.45;34.69
71194;BME280;58903;47.210;8.618;2023-01-26T15:27:39;94157.53;;;25.43;34.73
71194;BME280;58903;47.210;8.618;2023-01-26T15:30:27;94153.31;;;25.42;35.07
71194;BME280;58903;47.210;8.618;2023-01-26T15:36:52;94155.06;;;25.39;36.01
71194;BME280;58903;47.210;8.618;2023-01-26T15:39:23;94154.78;;;25.43;34.57
71194;BME280;58903;47.210;8.618;2023-01-26T15:42:13;94159.78;;;25.45;34.97
71194;BME280;58903;47.210;8.618;2023-01-26T15:44:58;94158.03;;;25.41;36.05
71194;BME280;58903;47.210;8.618;2023-01-26T15:50:28;94162.78;;;25.41;35.78
71194;BME280;58903;47.210;8.618;2023-01-26T15:52:54;94160.28;;;25.43;36.60
71194;BME280;58903;47.210;8.618;2023-01-26T15:55:25;94165.03;;;25.42;36.38
71194;BME280;58903;47.210;8.618;2023-01-26T15:57:51;94160.03;;;25.41;35.91
71194;BME280;58903;47.210;8.618;2023-01-26T16:00:20;94165.81;;;25.43;36.24
71194;BME280;58903;47.210;8.618;2023-01-26T16:02:47;94164.06;;;25.40;36.36
71194;BME280;58903;47.210;8.618;2023-01-26T16:05:19;94160.03;;;25.41;36.07